Aérodrome :
LOGIN :

S'inscrire | Disclaimer

   EN    FR    IT 

 










Légende :    VFR   VFR Marginal   IFR   IFR Intensif   IFR Très Intensif
Visi : 
Plafond : 
>= 8 km
>= 3000ft
5 à 8 km
1000 à 3000 ft
1500m à 5 km
500 à 1000 ft
800 à 1500m
200 à 500 ft
< 800m
< 200 ft
Symboles :   Orages  Brouillard  Fortes neiges  Fortes précipitations  Vent > 20 kt
SIGMETs :   Divers  Orages  Givrage  Turbulence  Onde Orograph.  Cendres Volcan.







- Altitude de l'aérodrome : 3360 ft
- Code IATA : QSF


DAAS - 8 Mai 45

DERNIER METAR :
  • 221500Z 26015KT 9999 FEW010 BKN026 12/06 Q1001

METARs EXPIRÉS :
  • 221400Z 26015KT 9999 FEW010 BKN026 12/08 Q1001
  • 221300Z 24010KT 9999 FEW010 BKN026 FEW030CB 11/09 Q1001

TAF TAF DAAS
Valide du 22 à 12h jusqu'au 23 à 12h UTC


221100Z 2212/2312 28014KT 6000 -RA FEW010 BKN026
TEMPO 2212/2220 4000 -SHRA FEW030CB
BECMG 2220/2222 21006KT
Pas de NOTAMs connus pour ce terrain.
1 SIGMET publié pour la FIR Alger (DAAA) :
 
Tempête de sable
DAAA SIGMET 2 VALID 221430/221730 DAMM
DAAA ALGER FIR HYV SS FCST WI N2826 E00953 - N2600 E00932 - N2508 E00808 - N2534 E00651 - N2826 E00953 MOV NE INTSF=



MET'MAP, la Météo Aéronautique d'un coup d'oeil ! - Copyright ORBIFLY Décembre 2007 - Disclaimer

ORBIFLY MET'MAP TEAM :

Programmation & Développement : Alexandra Zaïnal
Conception & Développement : Baudouin d'Aumeries
Co-Programmation & Développement : Marc-Olivier Méhu
Soutien technique & logistique : Manuel Goepfert

Contact : metmap@orbifly.com




SOURCES & CREDITS :

   NOAA